Time;durP1;ratioP1;P1;durP2;ratioP2;P2;SDS_P1;SDS_P2;PMS_P1;PMS_P2;Temp;Humidity;BMP_temperature;BMP_pressure;BME280_temperature;BME280_humidity;BME280_pressure;Samples;Min_cycle;Max_cycle;Signal;HPM_P1;HPM_P2
2020/12/12 00:02:22;;;;;;;7.78;5.05;;;;;;;5.19;50.59;98795.44;5030812;28;20037;-68
2020/12/12 00:04:49;;;;;;;8.30;4.95;;;;;;;5.20;50.29;98800.72;5029095;28;20056;-68
2020/12/12 00:07:16;;;;;;;6.68;4.53;;;;;;;5.20;50.48;98798.00;5025799;28;20040;-67
2020/12/12 00:09:44;;;;;;;7.43;4.68;;;;;;;5.22;50.57;98796.00;5020982;28;20046;-69
2020/12/12 00:12:12;;;;;;;7.50;4.60;;;;;;;5.26;50.20;98802.00;5025591;28;20497;-68
2020/12/12 00:14:40;;;;;;;7.38;4.53;;;;;;;5.26;50.69;98801.16;5029646;28;20117;-68
2020/12/12 00:17:07;;;;;;;7.95;5.03;;;;;;;5.28;50.30;98809.97;5012476;28;20484;-66
2020/12/12 00:19:34;;;;;;;6.82;4.35;;;;;;;5.29;50.24;98801.69;5029274;28;20048;-68
2020/12/12 00:22:02;;;;;;;7.80;4.97;;;;;;;5.31;50.44;98809.69;5028399;28;20468;-68
2020/12/12 00:24:30;;;;;;;7.05;4.57;;;;;;;5.32;50.27;98808.69;5013889;28;20041;-68
2020/12/12 00:26:57;;;;;;;7.72;4.68;;;;;;;5.33;50.39;98805.81;5030228;28;20047;-67
2020/12/12 00:29:25;;;;;;;9.48;5.47;;;;;;;5.35;50.47;98813.78;5029404;28;20299;-68
2020/12/12 00:31:55;;;;;;;7.18;4.55;;;;;;;5.37;50.31;98804.50;5017693;28;20111;-69
2020/12/12 00:34:22;;;;;;;8.75;5.57;;;;;;;5.37;50.42;98798.22;5026973;28;20116;-69
2020/12/12 00:36:50;;;;;;;7.40;4.60;;;;;;;5.39;50.51;98804.34;5031074;28;20531;-69
2020/12/12 00:39:18;;;;;;;6.82;4.53;;;;;;;5.41;50.56;98799.66;5032446;28;20097;-70
2020/12/12 00:41:48;;;;;;;7.20;4.60;;;;;;;5.41;50.32;98805.06;5030710;28;20506;-70
2020/12/12 00:44:16;;;;;;;8.15;4.85;;;;;;;5.42;50.61;98812.22;5029923;28;20029;-69
2020/12/12 00:46:45;;;;;;;6.85;4.32;;;;;;;5.43;50.33;98811.22;5012521;28;20041;-69
2020/12/12 00:49:14;;;;;;;7.72;4.60;;;;;;;5.43;50.48;98816.63;5013107;28;20048;-69
2020/12/12 00:51:42;;;;;;;7.43;4.88;;;;;;;5.42;50.39;98810.34;5011061;28;20051;-68
2020/12/12 00:54:10;;;;;;;8.20;4.75;;;;;;;5.43;50.56;98817.44;5025823;28;20037;-69
2020/12/12 00:56:37;;;;;;;7.82;4.55;;;;;;;5.45;50.42;98817.31;5031989;28;20042;-69
2020/12/12 00:59:05;;;;;;;7.68;4.75;;;;;;;5.44;50.45;98816.44;5026689;28;20406;-69
2020/12/12 01:01:32;;;;;;;7.40;4.60;;;;;;;5.45;50.40;98820.88;5031663;28;20041;-69
2020/12/12 01:04:00;;;;;;;6.95;4.32;;;;;;;5.46;50.41;98819.03;5023340;28;20048;-68
2020/12/12 01:06:28;;;;;;;6.20;4.22;;;;;;;5.46;50.71;98824.44;5023414;28;20041;-69
2020/12/12 01:08:56;;;;;;;7.50;4.28;;;;;;;5.45;50.37;98820.88;5030355;28;20103;-69
2020/12/12 01:11:23;;;;;;;6.35;4.35;;;;;;;5.46;50.44;98827.16;5030123;28;20116;-67
2020/12/12 01:13:50;;;;;;;6.93;4.32;;;;;;;5.47;50.56;98827.03;5023059;28;20393;-69
2020/12/12 01:16:20;;;;;;;8.82;4.85;;;;;;;5.48;50.34;98825.19;5028918;28;20052;-67
2020/12/12 01:18:47;;;;;;;7.25;4.80;;;;;;;5.49;50.50;98829.63;5024635;28;20042;-68
2020/12/12 01:21:17;;;;;;;6.93;4.65;;;;;;;5.51;50.57;98831.16;5029905;28;20046;-68
2020/12/12 01:23:46;;;;;;;7.40;4.20;;;;;;;5.51;50.48;98831.16;5031393;28;20080;-68
2020/12/12 01:26:14;;;;;;;7.28;4.20;;;;;;;5.52;50.57;98832.00;5027472;28;20539;-68
2020/12/12 01:28:41;;;;;;;8.10;4.97;;;;;;;5.52;50.33;98832.88;5026975;28;20132;-68
2020/12/12 01:31:12;;;;;;;6.95;4.35;;;;;;;5.53;50.61;98842.72;5034742;28;20041;-68
2020/12/12 01:33:40;;;;;;;6.82;4.18;;;;;;;5.53;50.61;98844.56;5018006;28;20653;-68
2020/12/12 01:36:08;;;;;;;7.13;4.43;;;;;;;5.54;50.19;98840.84;5031822;28;20043;-68
2020/12/12 01:38:36;;;;;;;7.55;4.53;;;;;;;5.56;50.61;98847.00;5027186;28;20038;-68
2020/12/12 01:41:04;;;;;;;6.32;4.13;;;;;;;5.54;50.47;98847.13;5030038;28;20523;-68
2020/12/12 01:43:31;;;;;;;6.50;4.20;;;;;;;5.55;50.53;98851.56;5030698;28;20037;-68
2020/12/12 01:45:59;;;;;;;6.35;3.97;;;;;;;5.56;50.50;98841.56;5024801;28;20119;-68
2020/12/12 01:48:26;;;;;;;5.68;3.45;;;;;;;5.57;50.45;98849.56;5034227;28;20099;-68
2020/12/12 01:50:54;;;;;;;7.30;4.25;;;;;;;5.58;50.40;98845.84;5011999;28;20041;-66
2020/12/12 01:53:26;;;;;;;8.32;4.70;;;;;;;5.59;50.63;98849.41;5032618;28;20049;-68
2020/12/12 01:55:54;;;;;;;7.32;4.43;;;;;;;5.58;50.55;98848.56;5029363;28;20492;-68
2020/12/12 01:58:22;;;;;;;7.07;4.40;;;;;;;5.59;50.53;98847.53;5031833;28;20041;-68
2020/12/12 02:00:49;;;;;;;7.03;4.45;;;;;;;5.59;50.72;98850.25;5029649;28;20042;-68
2020/12/12 02:03:24;;;;;;;8.27;4.70;;;;;;;5.64;50.95;98848.94;5004931;28;20493;-68
2020/12/12 02:05:55;;;;;;;6.90;4.20;;;;;;;5.64;50.70;98857.94;5033043;28;20037;-68
2020/12/12 02:08:24;;;;;;;6.33;4.10;;;;;;;5.62;50.77;98856.38;5027367;28;20459;-68
2020/12/12 02:10:51;;;;;;;6.25;4.10;;;;;;;5.65;50.65;98858.81;5027530;28;20205;-68
2020/12/12 02:13:19;;;;;;;6.35;3.90;;;;;;;5.66;50.58;98852.38;5029055;28;20037;-68
2020/12/12 02:15:47;;;;;;;6.45;3.90;;;;;;;5.67;50.54;98854.94;5028565;28;20277;-68
2020/12/12 02:18:19;;;;;;;7.25;4.30;;;;;;;5.70;50.65;98853.78;5033287;28;20126;-66
2020/12/12 02:20:54;;;;;;;6.63;4.15;;;;;;;5.71;50.75;98850.91;5031808;28;20041;-68
2020/12/12 02:23:23;;;;;;;6.32;4.25;;;;;;;5.70;50.73;98854.63;4997288;28;20048;-66
2020/12/12 02:25:51;;;;;;;6.47;3.88;;;;;;;5.71;50.60;98859.06;5028077;28;20095;-67
2020/12/12 02:28:21;;;;;;;8.25;4.60;;;;;;;5.70;50.55;98857.34;5032027;28;20033;-67
2020/12/12 02:30:48;;;;;;;7.70;4.45;;;;;;;5.70;50.84;98857.34;5031853;28;20469;-67
2020/12/12 02:33:16;;;;;;;6.18;4.00;;;;;;;5.70;50.84;98853.78;5025780;28;20041;-66
2020/12/12 02:35:43;;;;;;;6.63;4.18;;;;;;;5.70;50.63;98856.47;5029705;28;20451;-66
2020/12/12 02:38:11;;;;;;;6.97;4.55;;;;;;;5.70;50.75;98857.34;5029739;28;20095;-66
2020/12/12 02:40:39;;;;;;;6.18;3.88;;;;;;;5.71;50.71;98856.34;5031728;28;20048;-67
2020/12/12 02:43:11;;;;;;;7.28;4.63;;;;;;;5.72;51.00;98859.91;5035275;28;20038;-66
2020/12/12 02:45:38;;;;;;;7.22;4.20;;;;;;;5.70;50.92;98849.19;5029056;28;20049;-67
2020/12/12 02:48:06;;;;;;;6.28;4.28;;;;;;;5.71;50.72;98856.34;5031089;28;20816;-66
2020/12/12 02:50:34;;;;;;;7.45;4.25;;;;;;;5.72;50.83;98855.34;5031856;28;20542;-67
2020/12/12 02:53:01;;;;;;;7.43;4.55;;;;;;;5.72;50.91;98854.47;5030083;28;20120;-67
2020/12/12 02:55:30;;;;;;;6.78;4.38;;;;;;;5.75;50.92;98856.91;5034622;28;20046;-67
2020/12/12 02:57:58;;;;;;;6.47;4.13;;;;;;;5.76;50.87;98853.19;5027986;28;20112;-67
2020/12/12 03:00:26;;;;;;;6.35;4.15;;;;;;;5.77;50.74;98865.72;5025084;28;20065;-67
2020/12/12 03:02:54;;;;;;;6.65;4.15;;;;;;;5.76;50.60;98867.56;5032837;28;20120;-67
2020/12/12 03:05:22;;;;;;;5.95;3.90;;;;;;;5.77;50.80;98869.28;5030096;28;20124;-67
2020/12/12 03:07:49;;;;;;;6.65;4.00;;;;;;;5.78;50.89;98873.72;5028410;28;20156;-67
2020/12/12 03:10:16;;;;;;;6.15;3.80;;;;;;;5.79;50.76;98875.44;5029470;28;20041;-67
2020/12/12 03:12:44;;;;;;;5.50;3.63;;;;;;;5.80;51.02;98879.00;5032462;28;20096;-67
2020/12/12 03:15:12;;;;;;;6.90;4.38;;;;;;;5.81;51.02;98875.28;5032188;28;20049;-67
2020/12/12 03:17:39;;;;;;;6.40;4.10;;;;;;;5.82;50.71;98877.00;5031473;28;20443;-67
2020/12/12 03:20:07;;;;;;;6.72;4.18;;;;;;;5.83;50.91;98879.56;5029815;28;20049;-67
2020/12/12 03:22:35;;;;;;;7.38;4.22;;;;;;;5.84;50.94;98880.44;5031606;28;20039;-67
2020/12/12 03:25:03;;;;;;;7.53;4.43;;;;;;;5.85;50.74;98879.38;5028487;28;20420;-67
2020/12/12 03:27:31;;;;;;;7.25;4.75;;;;;;;5.85;50.92;98884.81;5031659;28;20045;-67
2020/12/12 03:29:58;;;;;;;6.60;4.35;;;;;;;5.85;51.02;98884.81;5029066;28;20346;-67
2020/12/12 03:32:32;;;;;;;7.25;4.10;;;;;;;5.85;50.94;98882.97;5021927;28;20053;-67
2020/12/12 03:35:00;;;;;;;7.38;4.13;;;;;;;5.86;50.89;98886.53;5025523;28;20046;-67
2020/12/12 03:37:27;;;;;;;7.15;4.32;;;;;;;5.87;50.82;98893.66;5029021;28;20040;-67
2020/12/12 03:39:55;;;;;;;6.22;3.90;;;;;;;5.87;50.73;98899.94;5030414;28;20120;-67
2020/12/12 03:42:22;;;;;;;7.07;4.50;;;;;;;5.88;51.02;98893.53;5026479;28;20038;-67
2020/12/12 03:44:49;;;;;;;6.30;4.15;;;;;;;5.88;50.86;98896.25;5027004;28;20271;-67
2020/12/12 03:47:17;;;;;;;6.88;4.28;;;;;;;5.88;50.88;98898.94;5030364;28;20049;-67
2020/12/12 03:49:45;;;;;;;7.28;4.50;;;;;;;5.90;50.92;98898.81;5031623;28;20041;-67
2020/12/12 03:52:12;;;;;;;6.70;4.38;;;;;;;5.88;50.84;98901.66;5029971;28;20045;-67
2020/12/12 03:54:40;;;;;;;7.53;4.82;;;;;;;5.90;50.84;98902.38;5032462;28;20041;-67
2020/12/12 03:57:08;;;;;;;7.60;4.50;;;;;;;5.90;50.94;98910.53;5027299;28;20540;-67
2020/12/12 03:59:35;;;;;;;7.90;4.75;;;;;;;5.90;51.00;98906.94;5028991;28;20423;-67
2020/12/12 04:02:03;;;;;;;7.00;4.50;;;;;;;5.91;51.13;98912.22;5032480;28;20053;-67
2020/12/12 04:04:30;;;;;;;7.45;4.45;;;;;;;5.91;50.96;98917.66;5031638;28;20064;-67
2020/12/12 04:06:58;;;;;;;7.35;4.35;;;;;;;5.94;51.00;98919.19;5025809;28;20052;-68
2020/12/12 04:09:25;;;;;;;7.65;4.55;;;;;;;5.93;50.91;98909.34;5031580;28;20053;-67
2020/12/12 04:11:52;;;;;;;8.00;4.63;;;;;;;5.93;51.03;98912.91;5029818;28;20042;-67
2020/12/12 04:14:20;;;;;;;7.15;4.30;;;;;;;5.95;50.97;98919.06;5027720;28;20783;-67
2020/12/12 04:16:49;;;;;;;8.48;5.22;;;;;;;5.97;50.99;98918.91;5021379;28;20038;-67
2020/12/12 04:19:16;;;;;;;8.57;4.95;;;;;;;5.96;51.17;98920.75;5026684;28;20049;-67
2020/12/12 04:21:44;;;;;;;7.43;5.03;;;;;;;5.97;51.09;98927.91;5030617;28;20045;-67
2020/12/12 04:24:13;;;;;;;7.68;4.70;;;;;;;5.97;50.73;98927.91;5028639;28;20516;-67
2020/12/12 04:26:40;;;;;;;9.35;4.95;;;;;;;5.99;50.98;98922.34;5007116;28;20037;-67
2020/12/12 04:29:08;;;;;;;7.85;5.28;;;;;;;5.99;51.14;98925.03;5027301;28;20053;-67
2020/12/12 04:31:36;;;;;;;9.50;5.35;;;;;;;6.00;51.09;98931.34;5025663;28;20041;-67
2020/12/12 04:34:07;;;;;;;9.43;5.70;;;;;;;6.00;51.19;98937.63;5018486;28;20413;-67
2020/12/12 04:36:35;;;;;;;8.30;4.90;;;;;;;6.00;51.13;98932.19;5026200;28;20033;-67
2020/12/12 04:39:03;;;;;;;7.80;4.70;;;;;;;6.01;51.08;98927.63;5026486;28;20124;-67
2020/12/12 04:41:32;;;;;;;10.10;5.68;;;;;;;6.02;51.11;98938.28;5030050;28;20061;-67
2020/12/12 04:43:59;;;;;;;8.82;5.32;;;;;;;6.01;51.16;98933.88;5029753;28;20037;-67
2020/12/12 04:46:27;;;;;;;8.27;4.93;;;;;;;6.02;51.29;98940.16;5028394;28;20508;-67
2020/12/12 04:48:55;;;;;;;9.57;5.50;;;;;;;6.02;51.30;98932.00;5031204;28;20514;-67
2020/12/12 04:51:25;;;;;;;10.35;6.07;;;;;;;6.03;51.18;98942.72;5038070;28;20075;-68
2020/12/12 04:53:56;;;;;;;8.93;5.28;;;;;;;6.06;51.66;98941.56;5030668;28;20065;-67
2020/12/12 04:56:25;;;;;;;8.68;5.53;;;;;;;6.04;51.26;98938.16;5029687;28;20053;-67
2020/12/12 04:58:54;;;;;;;7.97;4.80;;;;;;;6.04;51.35;98941.72;5027296;28;20037;-67
2020/12/12 05:01:21;;;;;;;8.65;5.55;;;;;;;6.04;51.50;98938.16;5037117;28;20080;-67
2020/12/12 05:03:48;;;;;;;10.10;5.63;;;;;;;6.04;51.37;98941.72;5033980;28;20484;-67
2020/12/12 05:06:16;;;;;;;9.18;5.65;;;;;;;6.04;51.27;98944.44;5031543;28;20049;-67
2020/12/12 05:08:43;;;;;;;11.80;6.43;;;;;;;6.04;51.33;98941.72;5029541;28;20063;-67
2020/12/12 05:11:11;;;;;;;10.48;5.88;;;;;;;6.04;51.26;98946.28;5017759;28;20508;-67
2020/12/12 05:13:39;;;;;;;9.35;5.32;;;;;;;6.04;51.39;98952.59;5041525;28;20480;-67
2020/12/12 05:16:08;;;;;;;10.45;5.68;;;;;;;6.06;51.48;98952.44;5028232;28;20120;-67
2020/12/12 05:18:35;;;;;;;9.07;5.40;;;;;;;6.05;51.28;98948.00;5018113;28;20049;-67
2020/12/12 05:21:03;;;;;;;9.65;6.07;;;;;;;6.05;51.56;98950.72;5033639;28;20493;-68
2020/12/12 05:23:30;;;;;;;7.97;5.00;;;;;;;6.06;51.45;98955.16;5034839;28;20037;-68
2020/12/12 05:25:57;;;;;;;9.13;5.30;;;;;;;6.05;51.42;98956.16;5018861;28;20046;-68
2020/12/12 05:28:25;;;;;;;9.82;5.78;;;;;;;6.05;51.45;98964.28;5034680;28;20041;-68
2020/12/12 05:30:53;;;;;;;12.00;6.30;;;;;;;6.05;51.61;98961.56;5032471;28;20041;-68
2020/12/12 05:33:24;;;;;;;9.35;5.47;;;;;;;6.07;51.71;98965.00;5035625;28;20083;-68
2020/12/12 05:35:53;;;;;;;10.95;6.28;;;;;;;6.06;51.91;98968.72;5028609;28;20057;-68
2020/12/12 05:38:21;;;;;;;11.27;5.82;;;;;;;6.06;51.52;98966.00;5031529;28;20108;-69
2020/12/12 05:40:54;;;;;;;9.93;5.68;;;;;;;6.08;51.71;98970.28;5033824;28;20107;-69
2020/12/12 05:43:32;;;;;;;9.65;5.28;;;;;;;6.08;52.23;98966.72;5030366;28;20136;-69
2020/12/12 05:46:00;;;;;;;10.52;5.95;;;;;;;6.05;51.53;98973.28;5032047;28;20099;-69
2020/12/12 05:48:29;;;;;;;11.43;6.40;;;;;;;6.07;51.62;98974.00;5023159;28;20042;-69
2020/12/12 05:50:56;;;;;;;10.20;5.95;;;;;;;6.06;51.56;98977.72;5031446;28;20049;-69
2020/12/12 05:53:23;;;;;;;9.68;5.70;;;;;;;6.07;51.77;98979.44;5034162;28;20042;-68
2020/12/12 05:55:54;;;;;;;9.35;5.63;;;;;;;6.07;51.94;98974.00;5033943;28;20033;-69
2020/12/12 05:58:22;;;;;;;9.63;5.32;;;;;;;6.07;51.45;98984.88;5031110;28;20142;-69
2020/12/12 06:00:52;;;;;;;10.10;5.68;;;;;;;6.08;51.75;98986.56;5030946;28;20079;-69
2020/12/12 06:03:31;;;;;;;9.18;5.30;;;;;;;6.08;52.30;98992.00;5035602;28;20037;-69
2020/12/12 06:06:04;;;;;;;9.55;5.90;;;;;;;6.09;52.12;98988.25;5033553;28;20507;-68
2020/12/12 06:08:34;;;;;;;10.20;5.82;;;;;;;6.08;51.94;98988.44;5033724;28;20041;-68
2020/12/12 06:11:04;;;;;;;10.32;5.78;;;;;;;6.09;51.81;98996.41;5032972;28;20514;-69
2020/12/12 06:13:36;;;;;;;9.77;6.07;;;;;;;6.10;52.00;98997.25;5029530;28;20042;-68
2020/12/12 06:16:04;;;;;;;10.55;5.80;;;;;;;6.11;51.75;99005.25;5031350;28;20042;-68
2020/12/12 06:18:41;;;;;;;10.52;6.30;;;;;;;6.12;52.44;99006.97;5025145;28;20120;-68
2020/12/12 06:21:10;;;;;;;11.15;6.43;;;;;;;6.09;51.79;99007.25;5028951;28;20128;-68
2020/12/12 06:23:41;;;;;;;11.45;5.88;;;;;;;6.10;51.67;99006.25;5017830;28;20030;-68
2020/12/12 06:26:10;;;;;;;9.85;6.13;;;;;;;6.10;51.95;99011.69;5032792;28;20052;-68
2020/12/12 06:28:42;;;;;;;10.70;5.80;;;;;;;6.13;52.19;99024.97;5015058;28;20499;-68
2020/12/12 06:31:11;;;;;;;11.48;6.05;;;;;;;6.11;52.05;99023.41;5031791;28;20083;-68
2020/12/12 06:33:50;;;;;;;9.18;5.53;;;;;;;6.14;52.43;99031.25;5034602;28;20042;-68
2020/12/12 06:36:25;;;;;;;11.88;6.53;;;;;;;6.14;52.39;99025.84;5033570;28;20175;-68
2020/12/12 06:39:15;;;;;;;10.73;6.15;;;;;;;6.11;52.88;99024.25;5029408;28;20034;-69
2020/12/12 06:41:43;;;;;;;9.48;5.38;;;;;;;6.12;52.07;99022.41;5027929;28;20053;-68
2020/12/12 06:44:10;;;;;;;10.13;5.82;;;;;;;6.13;52.13;99029.56;5032668;28;20090;-68
2020/12/12 06:46:58;;;;;;;11.05;6.00;;;;;;;6.14;52.79;99031.25;5004373;28;20057;-68
2020/12/12 06:49:28;;;;;;;9.65;5.35;;;;;;;6.15;52.20;99038.41;5026413;28;20041;-68
2020/12/12 06:51:56;;;;;;;11.00;6.30;;;;;;;6.13;52.02;99037.69;5033480;28;20045;-68
2020/12/12 06:54:24;;;;;;;10.05;5.63;;;;;;;6.14;52.09;99042.97;5032172;28;20040;-68
2020/12/12 06:56:51;;;;;;;10.43;5.78;;;;;;;6.15;52.13;99051.97;5015802;28;20052;-68
2020/12/12 06:59:27;;;;;;;9.80;5.80;;;;;;;6.18;52.57;99046.22;5029246;28;20033;-68
2020/12/12 07:01:55;;;;;;;11.15;5.97;;;;;;;6.15;52.08;99057.41;5027539;28;20096;-69
2020/12/12 07:04:24;;;;;;;11.00;6.25;;;;;;;6.17;52.07;99058.13;5032854;28;20191;-68
2020/12/12 07:07:00;;;;;;;11.07;6.18;;;;;;;6.20;52.70;99064.09;5032357;28;20126;-68
2020/12/12 07:09:29;;;;;;;10.73;6.38;;;;;;;6.17;52.25;99063.56;5031731;28;20495;-68
2020/12/12 07:12:01;;;;;;;;;;;;;;;5.94;53.05;99068.47;5032679;28;20064;-68
2020/12/12 07:14:29;;;;;;;10.55;5.97;;;;;;;6.13;52.13;99068.41;5032428;28;20015;-67
2020/12/12 07:16:59;;;;;;;11.05;6.03;;;;;;;6.18;52.12;99074.25;5029762;28;20456;-67
2020/12/12 07:19:34;;;;;;;11.32;6.40;;;;;;;6.22;52.71;99080.25;5036609;28;20083;-67
2020/12/12 07:22:04;;;;;;;10.95;6.32;;;;;;;6.18;52.46;99090.53;5018991;28;20128;-68
2020/12/12 07:24:32;;;;;;;11.52;6.22;;;;;;;6.19;52.09;99081.38;5028306;28;20051;-67
2020/12/12 07:27:00;;;;;;;12.00;6.93;;;;;;;6.18;52.37;99095.09;5031764;28;20124;-67
2020/12/12 07:29:28;;;;;;;9.75;5.90;;;;;;;6.20;52.30;99098.53;5027894;28;20041;-68
2020/12/12 07:31:56;;;;;;;9.40;5.90;;;;;;;6.19;52.20;99094.97;5028495;28;20124;-68
2020/12/12 07:34:25;;;;;;;10.00;5.63;;;;;;;6.21;52.36;99097.53;5031526;28;20047;-67
2020/12/12 07:37:00;;;;;;;10.35;5.50;;;;;;;6.23;52.75;99101.81;5032078;28;20111;-68
2020/12/12 07:39:33;;;;;;;8.07;5.15;;;;;;;6.23;52.57;99109.13;5026166;28;20044;-68
2020/12/12 07:42:02;;;;;;;9.43;6.15;;;;;;;6.19;52.52;99111.25;5013696;28;20050;-68
2020/12/12 07:44:35;;;;;;;8.68;5.50;;;;;;;6.21;52.10;99117.41;5028118;28;20497;-68
2020/12/12 07:47:04;;;;;;;9.75;5.20;;;;;;;6.23;52.21;99123.56;5007142;28;20481;-68
2020/12/12 07:49:33;;;;;;;10.50;5.53;;;;;;;6.24;52.38;99122.56;5030286;28;20095;-68
2020/12/12 07:52:03;;;;;;;9.38;5.43;;;;;;;6.25;52.33;99126.13;5030928;28;20041;-68
2020/12/12 07:54:38;;;;;;;9.25;5.03;;;;;;;6.26;52.61;99131.38;5031234;28;20482;-69
2020/12/12 07:57:07;;;;;;;10.10;6.00;;;;;;;6.25;52.33;99134.28;5032093;28;20056;-68
2020/12/12 07:59:34;;;;;;;10.25;5.43;;;;;;;6.25;52.36;99136.97;5027171;28;20046;-68
2020/12/12 08:02:06;;;;;;;9.45;5.75;;;;;;;6.28;52.61;99148.38;5033238;28;20057;-69
2020/12/12 08:04:34;;;;;;;9.10;5.53;;;;;;;6.27;52.34;99154.81;5026989;28;20116;-68
2020/12/12 08:07:17;;;;;;;9.25;5.50;;;;;;;6.29;52.95;99151.97;5031755;28;20071;-68
2020/12/12 08:09:49;;;;;;;;;;;;;;;6.05;53.48;99159.72;5031180;28;20060;-68
2020/12/12 08:12:28;;;;;;;9.90;5.18;;;;;;;6.25;52.93;99158.72;5029861;28;19930;-68
2020/12/12 08:14:57;;;;;;;8.98;5.15;;;;;;;6.27;52.20;99159.38;5031428;28;20377;-69
2020/12/12 08:17:30;;;;;;;8.40;4.93;;;;;;;6.30;52.41;99167.25;5024808;28;20029;-68
2020/12/12 08:19:58;;;;;;;9.23;5.55;;;;;;;6.30;52.36;99169.97;5029789;28;20052;-68
2020/12/12 08:22:27;;;;;;;9.10;5.65;;;;;;;6.31;52.36;99182.56;5030215;28;20045;-69
2020/12/12 08:24:55;;;;;;;8.55;5.05;;;;;;;6.32;52.43;99187.84;5030448;28;20103;-68
2020/12/12 08:27:25;;;;;;;10.65;6.18;;;;;;;6.32;52.43;99187.84;5031743;28;20099;-69
2020/12/12 08:29:54;;;;;;;9.65;5.78;;;;;;;6.32;52.45;99198.72;5027198;28;20441;-69
2020/12/12 08:32:33;;;;;;;8.70;5.22;;;;;;;6.34;53.04;99195.81;5021833;28;20072;-69
2020/12/12 08:35:15;;;;;;;10.02;5.70;;;;;;;6.34;53.17;99198.53;5027654;28;20053;-69
2020/12/12 08:37:57;;;;;;;10.07;5.93;;;;;;;6.34;52.82;99203.97;5019362;28;20042;-68
2020/12/12 08:40:27;;;;;;;8.50;5.13;;;;;;;6.34;52.59;99204.81;5029226;28;20037;-69
2020/12/12 08:42:58;;;;;;;9.25;4.95;;;;;;;6.35;52.40;99211.97;5030865;28;20034;-68
2020/12/12 08:45:27;;;;;;;8.40;5.00;;;;;;;6.36;52.56;99212.84;5030802;28;20382;-68
2020/12/12 08:48:07;;;;;;;9.82;5.47;;;;;;;6.40;53.25;99214.28;5031138;28;20047;-69
2020/12/12 08:50:50;;;;;;;8.10;4.75;;;;;;;6.39;53.05;99214.41;5027503;28;20048;-69
2020/12/12 08:53:22;;;;;;;9.55;5.53;;;;;;;6.36;53.05;99220.97;5030386;28;20045;-68
2020/12/12 08:56:07;;;;;;;9.55;6.07;;;;;;;6.38;53.28;99218.97;5030185;28;20123;-68
2020/12/12 08:58:43;;;;;;;9.30;5.50;;;;;;;6.40;53.12;99218.84;5030405;28;20055;-68
2020/12/12 09:01:16;;;;;;;10.15;5.28;;;;;;;6.40;53.02;99229.72;5030604;28;20256;-68
2020/12/12 09:04:06;;;;;;;9.27;5.10;;;;;;;6.41;53.27;99231.44;5029320;28;20556;-68
2020/12/12 09:06:35;;;;;;;8.93;4.97;;;;;;;6.39;52.52;99236.13;5035627;28;20049;-68
2020/12/12 09:09:08;;;;;;;9.55;5.38;;;;;;;6.42;53.00;99242.13;5025968;28;20357;-68
2020/12/12 09:11:37;;;;;;;;;;;;;;;6.17;53.46;99251.72;5014282;28;20403;-67
2020/12/12 09:14:05;;;;;;;8.88;5.18;;;;;;;6.38;52.86;99248.00;5027552;28;19931;-68
2020/12/12 09:16:33;;;;;;;9.52;5.53;;;;;;;6.43;52.88;99248.41;5023313;28;20530;-68
2020/12/12 09:19:01;;;;;;;8.98;4.93;;;;;;;6.44;52.50;99250.13;5019362;28;20046;-68
2020/12/12 09:21:31;;;;;;;9.68;5.70;;;;;;;6.46;52.79;99262.56;5030241;28;20504;-68
2020/12/12 09:23:59;;;;;;;8.48;5.10;;;;;;;6.46;52.63;99264.44;5028068;28;20120;-68
2020/12/12 09:26:27;;;;;;;8.68;5.03;;;;;;;6.45;52.57;99263.56;5015028;28;20053;-68
2020/12/12 09:28:55;;;;;;;8.52;4.95;;;;;;;6.47;52.86;99277.00;5027269;28;20494;-68
2020/12/12 09:31:24;;;;;;;7.97;4.85;;;;;;;6.47;52.85;99277.88;5022575;28;20048;-68
2020/12/12 09:33:52;;;;;;;9.07;5.25;;;;;;;6.49;52.82;99285.88;5031494;28;20537;-68
2020/12/12 09:36:20;;;;;;;7.47;4.70;;;;;;;6.50;52.88;99293.84;5005093;28;20489;-68
2020/12/12 09:38:47;;;;;;;8.15;4.85;;;;;;;6.51;52.93;99298.28;5031634;28;20049;-67
2020/12/12 09:41:15;;;;;;;7.75;4.65;;;;;;;6.52;53.05;99301.88;5022004;28;20040;-69
2020/12/12 09:43:42;;;;;;;7.35;4.80;;;;;;;6.53;52.87;99299.00;5026104;28;20056;-68
2020/12/12 09:46:11;;;;;;;8.02;5.00;;;;;;;6.55;53.01;99288.88;5030745;28;20048;-67
2020/12/12 09:48:39;;;;;;;7.95;4.88;;;;;;;6.56;52.93;99297.88;5035743;28;20037;-69
2020/12/12 09:51:10;;;;;;;7.43;4.47;;;;;;;6.59;52.81;99303.00;5016620;28;20076;-69
2020/12/12 09:53:38;;;;;;;8.20;4.90;;;;;;;6.57;52.78;99308.59;5029975;28;20144;-69
2020/12/12 09:56:06;;;;;;;8.63;4.80;;;;;;;6.59;52.82;99303.84;5027353;28;20037;-69
2020/12/12 09:58:33;;;;;;;8.60;4.95;;;;;;;6.61;53.07;99311.88;5034430;28;21840;-69
2020/12/12 10:01:00;;;;;;;9.77;5.60;;;;;;;6.63;52.99;99316.16;5032901;28;20031;-69
2020/12/12 10:03:29;;;;;;;9.65;5.40;;;;;;;6.66;52.80;99325.91;5026493;28;20041;-69
2020/12/12 10:05:56;;;;;;;10.10;5.90;;;;;;;6.64;52.90;99322.47;5030044;28;20041;-69
2020/12/12 10:08:27;;;;;;;9.23;5.25;;;;;;;6.65;52.79;99322.31;5016471;28;20041;-68
2020/12/12 10:10:54;;;;;;;9.98;5.50;;;;;;;6.67;52.83;99331.16;5031005;28;20052;-67
2020/12/12 10:13:22;;;;;;;9.30;5.40;;;;;;;6.67;52.81;99328.44;5026031;28;20049;-68
2020/12/12 10:15:49;;;;;;;9.35;5.30;;;;;;;6.68;53.02;99335.59;5032890;28;20519;-67
2020/12/12 10:18:17;;;;;;;10.20;5.70;;;;;;;6.69;53.04;99331.03;5025559;28;20608;-68
2020/12/12 10:20:47;;;;;;;9.35;5.75;;;;;;;6.71;53.16;99334.47;5029366;28;20045;-68
2020/12/12 10:23:14;;;;;;;11.35;5.82;;;;;;;6.72;53.09;99331.59;5034627;28;20045;-68
2020/12/12 10:25:42;;;;;;;9.75;6.07;;;;;;;6.73;53.22;99332.47;5034603;28;20041;-68
2020/12/12 10:28:10;;;;;;;12.13;6.72;;;;;;;6.74;53.04;99336.91;5027443;28;20065;-67
2020/12/12 10:30:37;;;;;;;9.95;6.00;;;;;;;6.77;53.14;99347.47;5029782;28;20136;-68
2020/12/12 10:33:06;;;;;;;11.23;5.78;;;;;;;6.78;52.91;99345.59;5035112;28;20045;-67
2020/12/12 10:35:33;;;;;;;10.38;6.28;;;;;;;6.80;53.31;99349.03;5031510;28;20069;-67
2020/12/12 10:38:03;;;;;;;9.55;5.82;;;;;;;6.82;53.23;99353.34;5032031;28;20396;-67
2020/12/12 10:40:33;;;;;;;10.13;5.97;;;;;;;6.83;53.23;99352.31;5045735;28;20388;-68
2020/12/12 10:43:04;;;;;;;9.82;5.93;;;;;;;6.85;53.16;99352.16;5034577;28;20496;-67
2020/12/12 10:45:32;;;;;;;10.18;5.70;;;;;;;6.86;53.32;99357.47;5042254;28;20025;-68
2020/12/12 10:48:00;;;;;;;10.48;5.88;;;;;;;6.88;53.23;99362.75;5032894;28;20041;-68
2020/12/12 10:50:29;;;;;;;9.10;5.38;;;;;;;6.89;53.19;99349.03;5025701;28;20365;-68
2020/12/12 10:52:57;;;;;;;9.68;5.32;;;;;;;6.91;53.13;99362.47;5031613;28;20492;-68
2020/12/12 10:55:25;;;;;;;9.15;5.10;;;;;;;6.92;53.39;99351.44;5027155;28;20460;-69
2020/12/12 10:57:53;;;;;;;8.63;5.28;;;;;;;6.94;53.16;99351.31;5029022;28;20048;-69
2020/12/12 11:00:24;;;;;;;8.70;5.35;;;;;;;6.95;53.26;99355.72;5030187;28;20102;-69
2020/12/12 11:02:52;;;;;;;10.30;5.88;;;;;;;6.95;53.22;99356.59;5010038;28;20051;-69
2020/12/12 11:05:20;;;;;;;7.93;5.00;;;;;;;6.99;53.21;99370.78;5030759;28;20041;-68
2020/12/12 11:07:52;;;;;;;9.93;5.38;;;;;;;6.97;53.20;99356.47;5025351;28;20469;-68
2020/12/12 11:10:21;;;;;;;9.00;5.13;;;;;;;7.01;53.18;99366.03;5030339;28;20053;-69
2020/12/12 11:12:50;;;;;;;8.68;5.25;;;;;;;7.03;53.22;99366.75;5035102;28;20041;-68
2020/12/12 11:15:18;;;;;;;8.38;4.85;;;;;;;7.03;53.26;99366.75;5035172;28;20124;-68
2020/12/12 11:17:46;;;;;;;10.27;5.63;;;;;;;7.06;53.38;99366.50;5027902;28;20507;-68
2020/12/12 11:20:14;;;;;;;8.93;5.82;;;;;;;7.06;53.20;99371.94;5029233;28;20065;-68
2020/12/12 11:22:42;;;;;;;8.30;5.38;;;;;;;7.06;53.39;99361.06;5032126;28;20409;-68
2020/12/12 11:25:10;;;;;;;8.90;5.10;;;;;;;7.08;53.33;99367.19;5026976;28;20134;-68
2020/12/12 11:27:38;;;;;;;9.30;5.72;;;;;;;7.08;53.30;99368.03;5024457;28;20056;-68
2020/12/12 11:30:11;;;;;;;9.52;5.60;;;;;;;7.09;53.28;99364.31;5029196;28;20096;-68
2020/12/12 11:32:39;;;;;;;10.15;5.78;;;;;;;7.09;53.07;99366.19;5027385;28;20060;-68
2020/12/12 11:35:12;;;;;;;11.52;7.03;;;;;;;7.10;53.13;99374.19;5024881;28;20084;-68
2020/12/12 11:40:28;;;;;;;8.57;5.83;;;;;;;7.08;53.26;99380.78;5025635;28;20408;-68
2020/12/12 11:48:44;;;;;;;9.60;5.82;;;;;;;7.12;53.33;99379.50;5022396;28;20060;-68
2020/12/12 11:51:11;;;;;;;9.95;5.82;;;;;;;7.14;53.27;99384.78;5028547;28;20563;-68
2020/12/12 11:53:38;;;;;;;8.35;5.40;;;;;;;7.15;53.34;99379.22;4993923;28;20397;-68
2020/12/12 11:56:06;;;;;;;8.73;5.10;;;;;;;7.17;53.21;99384.47;5028493;28;20048;-67
2020/12/12 11:58:33;;;;;;;9.65;5.70;;;;;;;7.17;53.32;99379.91;5025031;28;20045;-68
2020/12/12 12:01:04;;;;;;;8.50;5.22;;;;;;;7.19;53.40;99394.22;5027475;28;20092;-68